# Tabular Observed and Forecast Hydrograph Information
#
# Location: San Antonio River - Lockwood (LWDC1)
#
# File Generation Time: 05/05/2026 at 07:17 AM PDT
# Data Interval: 1 Hour
#
# Most Recent Date & Time of Maximum Observed: 04/30/2026 at 09:00 AM PDT
# Maximum Observed Stage: 4.30 Feet
# Maximum Observed Flow: 27 cfs
#
# Earliest Date & Time of Maximum Forecast: 05/05/2026 at 08:00 AM PDT
# Maximum Forecast Stage: 4.19 Feet
# Maximum Forecast Flow: 18 cfs
#
# OBSERVED
#
# Date & Time (Local) Stage (Feet) Flow (cfs) Trend Observed Status
# ---------------------------------------------------------------------------------
04/30/2026 07 AM PDT 4.26 24 Normal
04/30/2026 08 AM PDT 4.30 27 + Normal
04/30/2026 09 AM PDT 4.30 27 0 Normal
04/30/2026 10 AM PDT 4.29 26 - Normal
04/30/2026 11 AM PDT 4.29 26 0 Normal
04/30/2026 12 PM PDT 4.29 26 0 Normal
04/30/2026 01 PM PDT 4.29 26 0 Normal
04/30/2026 02 PM PDT 4.29 26 0 Normal
04/30/2026 03 PM PDT 4.29 26 0 Normal
04/30/2026 04 PM PDT 4.29 26 0 Normal
04/30/2026 05 PM PDT 4.29 26 0 Normal
04/30/2026 06 PM PDT 4.28 25 - Normal
04/30/2026 07 PM PDT 4.28 25 0 Normal
04/30/2026 08 PM PDT 4.27 25 - Normal
04/30/2026 09 PM PDT 4.26 24 - Normal
04/30/2026 10 PM PDT 4.26 24 0 Normal
04/30/2026 11 PM PDT 4.25 23 - Normal
05/01/2026 12 AM PDT 4.25 23 0 Normal
05/01/2026 01 AM PDT 4.24 22 - Normal
05/01/2026 02 AM PDT 4.19 18 - Normal
05/01/2026 03 AM PDT 4.19 18 0 Normal
05/01/2026 04 AM PDT 4.19 18 0 Normal
05/01/2026 05 AM PDT 4.19 18 0 Normal
05/01/2026 06 AM PDT 4.19 18 0 Normal
05/01/2026 07 AM PDT 4.19 18 0 Normal
05/01/2026 08 AM PDT 4.27 25 + Normal
05/01/2026 09 AM PDT 4.28 25 + Normal
05/01/2026 10 AM PDT 4.26 24 - Normal
05/01/2026 11 AM PDT 4.27 25 + Normal
05/01/2026 12 PM PDT 4.28 25 + Normal
05/01/2026 01 PM PDT 4.28 25 0 Normal
05/01/2026 02 PM PDT 4.27 25 - Normal
05/01/2026 03 PM PDT 4.27 25 0 Normal
05/01/2026 04 PM PDT 4.28 25 + Normal
05/01/2026 05 PM PDT 4.27 25 - Normal
05/01/2026 06 PM PDT 4.26 24 - Normal
05/01/2026 07 PM PDT 4.26 24 0 Normal
05/01/2026 08 PM PDT 4.26 24 0 Normal
05/01/2026 09 PM PDT 4.19 18 - Normal
05/01/2026 10 PM PDT 4.19 18 0 Normal
05/01/2026 11 PM PDT 4.19 18 0 Normal
05/02/2026 12 AM PDT 4.19 18 0 Normal
05/02/2026 01 AM PDT 4.19 18 0 Normal
05/02/2026 02 AM PDT 4.19 18 0 Normal
05/02/2026 03 AM PDT 4.19 18 0 Normal
05/02/2026 04 AM PDT 4.19 18 0 Normal
05/02/2026 05 AM PDT 4.19 18 0 Normal
05/02/2026 06 AM PDT 4.19 18 0 Normal
05/02/2026 07 AM PDT 4.19 18 0 Normal
05/02/2026 08 AM PDT 4.19 18 0 Normal
05/02/2026 09 AM PDT 4.19 18 0 Normal
05/02/2026 10 AM PDT 4.19 18 0 Normal
05/02/2026 11 AM PDT 4.19 18 0 Normal
05/02/2026 12 PM PDT 4.19 18 0 Normal
05/02/2026 01 PM PDT 4.19 18 0 Normal
05/02/2026 02 PM PDT 4.26 24 + Normal
05/02/2026 03 PM PDT 4.26 24 0 Normal
05/02/2026 04 PM PDT 4.25 23 - Normal
05/02/2026 05 PM PDT 4.26 24 + Normal
05/02/2026 06 PM PDT 4.25 23 - Normal
05/02/2026 07 PM PDT 4.19 18 - Normal
05/02/2026 08 PM PDT 4.19 18 0 Normal
05/02/2026 09 PM PDT 4.19 18 0 Normal
05/02/2026 10 PM PDT 4.19 18 0 Normal
05/02/2026 11 PM PDT 4.19 18 0 Normal
05/03/2026 12 AM PDT 4.19 18 0 Normal
05/03/2026 01 AM PDT 4.19 18 0 Normal
05/03/2026 02 AM PDT 4.19 18 0 Normal
05/03/2026 03 AM PDT 4.19 18 0 Normal
05/03/2026 04 AM PDT 4.19 18 0 Normal
05/03/2026 05 AM PDT 4.19 18 0 Normal
05/03/2026 06 AM PDT 4.19 18 0 Normal
05/03/2026 07 AM PDT 4.19 18 0 Normal
05/03/2026 08 AM PDT 4.19 18 0 Normal
05/03/2026 09 AM PDT 4.19 18 0 Normal
05/03/2026 10 AM PDT 4.19 18 0 Normal
05/03/2026 11 AM PDT 4.19 18 0 Normal
05/03/2026 12 PM PDT 4.19 18 0 Normal
05/03/2026 01 PM PDT 4.19 18 0 Normal
05/03/2026 02 PM PDT 4.19 18 0 Normal
05/03/2026 03 PM PDT 4.19 18 0 Normal
05/03/2026 04 PM PDT 4.19 18 0 Normal
05/03/2026 05 PM PDT 4.19 18 0 Normal
05/03/2026 06 PM PDT 4.19 18 0 Normal
05/03/2026 07 PM PDT 4.19 18 0 Normal
05/03/2026 08 PM PDT 4.19 18 0 Normal
05/03/2026 09 PM PDT 4.19 18 0 Normal
05/03/2026 10 PM PDT 4.19 18 0 Normal
05/03/2026 11 PM PDT 4.19 18 0 Normal
05/04/2026 12 AM PDT 4.19 18 0 Normal
05/04/2026 01 AM PDT 4.19 18 0 Normal
05/04/2026 02 AM PDT 4.19 18 0 Normal
05/04/2026 03 AM PDT 4.19 18 0 Normal
05/04/2026 04 AM PDT 4.19 18 0 Normal
05/04/2026 05 AM PDT 4.19 18 0 Normal
05/04/2026 06 AM PDT 4.19 18 0 Normal
05/04/2026 07 AM PDT 4.19 18 0 Normal
05/04/2026 08 AM PDT 4.19 18 0 Normal
05/04/2026 09 AM PDT 4.19 18 0 Normal
05/04/2026 10 AM PDT 4.19 18 0 Normal
05/04/2026 11 AM PDT 4.19 18 0 Normal
05/04/2026 12 PM PDT 4.19 18 0 Normal
05/04/2026 01 PM PDT 4.19 18 0 Normal
05/04/2026 02 PM PDT 4.19 18 0 Normal
05/04/2026 03 PM PDT 4.19 18 0 Normal
05/04/2026 04 PM PDT 4.19 18 0 Normal
05/04/2026 05 PM PDT 4.19 18 0 Normal
05/04/2026 06 PM PDT 4.19 18 0 Normal
05/04/2026 07 PM PDT 4.19 18 0 Normal
05/04/2026 08 PM PDT 4.19 18 0 Normal
05/04/2026 09 PM PDT 4.19 18 0 Normal
05/04/2026 10 PM PDT 4.19 18 0 Normal
05/04/2026 11 PM PDT 4.19 18 0 Normal
05/05/2026 12 AM PDT 4.19 18 0 Normal
05/05/2026 01 AM PDT 4.19 18 0 Normal
05/05/2026 02 AM PDT 4.19 18 0 Normal
05/05/2026 03 AM PDT 4.19 18 0 Normal
05/05/2026 04 AM PDT 4.19 18 0 Normal
05/05/2026 05 AM PDT 4.19 18 0 Normal
05/05/2026 06 AM PDT 4.19 18 0 Normal
05/05/2026 07 AM PDT 4.19 18 0 Normal
#
# FORECAST
#
# Date & Time (Local) Stage (Feet) Flow (cfs) Trend Forecast Status
# ---------------------------------------------------------------------------------
05/05/2026 08 AM PDT 4.19 18 Normal
05/05/2026 09 AM PDT 4.18 18 - Normal
05/05/2026 10 AM PDT 4.18 18 0 Normal
05/05/2026 11 AM PDT 4.18 18 0 Normal
05/05/2026 12 PM PDT 4.18 18 0 Normal
05/05/2026 01 PM PDT 4.18 18 0 Normal
05/05/2026 02 PM PDT 4.18 18 0 Normal
05/05/2026 03 PM PDT 4.17 17 - Normal
05/05/2026 04 PM PDT 4.17 17 0 Normal
05/05/2026 05 PM PDT 4.17 17 0 Normal
05/05/2026 06 PM PDT 4.17 17 0 Normal
05/05/2026 07 PM PDT 4.17 17 0 Normal
05/05/2026 08 PM PDT 4.17 17 0 Normal
05/05/2026 09 PM PDT 4.17 17 0 Normal
05/05/2026 10 PM PDT 4.17 17 0 Normal
05/05/2026 11 PM PDT 4.17 17 0 Normal
05/06/2026 12 AM PDT 4.17 17 0 Normal
05/06/2026 01 AM PDT 4.17 17 0 Normal
05/06/2026 02 AM PDT 4.17 17 0 Normal
05/06/2026 03 AM PDT 4.17 17 0 Normal
05/06/2026 04 AM PDT 4.17 17 0 Normal
05/06/2026 05 AM PDT 4.17 17 0 Normal
05/06/2026 06 AM PDT 4.17 17 0 Normal
05/06/2026 07 AM PDT 4.17 17 0 Normal
05/06/2026 08 AM PDT 4.17 17 0 Normal
05/06/2026 09 AM PDT 4.17 17 0 Normal
05/06/2026 10 AM PDT 4.17 17 0 Normal
05/06/2026 11 AM PDT 4.17 17 0 Normal
05/06/2026 12 PM PDT 4.17 17 0 Normal
05/06/2026 01 PM PDT 4.17 17 0 Normal
05/06/2026 02 PM PDT 4.17 17 0 Normal
05/06/2026 03 PM PDT 4.16 16 - Normal
05/06/2026 04 PM PDT 4.16 16 0 Normal
05/06/2026 05 PM PDT 4.16 16 0 Normal
05/06/2026 06 PM PDT 4.16 16 0 Normal
05/06/2026 07 PM PDT 4.16 16 0 Normal
05/06/2026 08 PM PDT 4.16 16 0 Normal
05/06/2026 09 PM PDT 4.16 16 0 Normal
05/06/2026 10 PM PDT 4.16 16 0 Normal
05/06/2026 11 PM PDT 4.16 16 0 Normal
05/07/2026 12 AM PDT 4.16 16 0 Normal
05/07/2026 01 AM PDT 4.16 16 0 Normal
05/07/2026 02 AM PDT 4.16 16 0 Normal
05/07/2026 03 AM PDT 4.16 16 0 Normal
05/07/2026 04 AM PDT 4.16 16 0 Normal
05/07/2026 05 AM PDT 4.16 16 0 Normal
05/07/2026 06 AM PDT 4.16 16 0 Normal
05/07/2026 07 AM PDT 4.16 16 0 Normal
05/07/2026 08 AM PDT 4.16 16 0 Normal
05/07/2026 09 AM PDT 4.16 16 0 Normal
05/07/2026 10 AM PDT 4.16 16 0 Normal
05/07/2026 11 AM PDT 4.16 16 0 Normal
05/07/2026 12 PM PDT 4.16 16 0 Normal
05/07/2026 01 PM PDT 4.16 16 0 Normal
05/07/2026 02 PM PDT 4.16 16 0 Normal
05/07/2026 03 PM PDT 4.16 16 0 Normal
05/07/2026 04 PM PDT 4.16 16 0 Normal
05/07/2026 05 PM PDT 4.16 16 0 Normal
05/07/2026 06 PM PDT 4.16 16 0 Normal
05/07/2026 07 PM PDT 4.15 16 - Normal
05/07/2026 08 PM PDT 4.15 16 0 Normal
05/07/2026 09 PM PDT 4.15 16 0 Normal
05/07/2026 10 PM PDT 4.15 16 0 Normal
05/07/2026 11 PM PDT 4.15 16 0 Normal
05/08/2026 12 AM PDT 4.15 16 0 Normal
05/08/2026 01 AM PDT 4.15 16 0 Normal
05/08/2026 02 AM PDT 4.15 16 0 Normal
05/08/2026 03 AM PDT 4.15 16 0 Normal
05/08/2026 04 AM PDT 4.15 16 0 Normal
05/08/2026 05 AM PDT 4.15 16 0 Normal
05/08/2026 06 AM PDT 4.15 16 0 Normal
05/08/2026 07 AM PDT 4.15 16 0 Normal
05/08/2026 08 AM PDT 4.15 16 0 Normal
05/08/2026 09 AM PDT 4.15 16 0 Normal
05/08/2026 10 AM PDT 4.15 16 0 Normal
05/08/2026 11 AM PDT 4.15 16 0 Normal
05/08/2026 12 PM PDT 4.15 16 0 Normal
05/08/2026 01 PM PDT 4.15 16 0 Normal
05/08/2026 02 PM PDT 4.15 16 0 Normal
05/08/2026 03 PM PDT 4.15 16 0 Normal
05/08/2026 04 PM PDT 4.15 16 0 Normal
05/08/2026 05 PM PDT 4.15 16 0 Normal
05/08/2026 06 PM PDT 4.14 15 - Normal
05/08/2026 07 PM PDT 4.14 15 0 Normal
05/08/2026 08 PM PDT 4.14 15 0 Normal
05/08/2026 09 PM PDT 4.14 15 0 Normal
05/08/2026 10 PM PDT 4.14 15 0 Normal
05/08/2026 11 PM PDT 4.14 15 0 Normal
05/09/2026 12 AM PDT 4.14 15 0 Normal
05/09/2026 01 AM PDT 4.14 15 0 Normal
05/09/2026 02 AM PDT 4.14 15 0 Normal
05/09/2026 03 AM PDT 4.14 15 0 Normal
05/09/2026 04 AM PDT 4.14 15 0 Normal
05/09/2026 05 AM PDT 4.14 15 0 Normal
05/09/2026 06 AM PDT 4.14 15 0 Normal
05/09/2026 07 AM PDT 4.14 15 0 Normal
05/09/2026 08 AM PDT 4.14 15 0 Normal
05/09/2026 09 AM PDT 4.14 15 0 Normal
05/09/2026 10 AM PDT 4.14 15 0 Normal
05/09/2026 11 AM PDT 4.14 15 0 Normal
05/09/2026 12 PM PDT 4.14 15 0 Normal
05/09/2026 01 PM PDT 4.14 15 0 Normal
05/09/2026 02 PM PDT 4.14 15 0 Normal
05/09/2026 03 PM PDT 4.14 15 0 Normal
05/09/2026 04 PM PDT 4.14 15 0 Normal
05/09/2026 05 PM PDT 4.14 15 0 Normal
05/09/2026 06 PM PDT 4.14 15 0 Normal
05/09/2026 07 PM PDT 4.14 15 0 Normal
05/09/2026 08 PM PDT 4.14 15 0 Normal
05/09/2026 09 PM PDT 4.13 14 - Normal
05/09/2026 10 PM PDT 4.13 14 0 Normal
05/09/2026 11 PM PDT 4.13 14 0 Normal
05/10/2026 12 AM PDT 4.13 14 0 Normal
05/10/2026 01 AM PDT 4.13 14 0 Normal
05/10/2026 02 AM PDT 4.13 14 0 Normal
05/10/2026 03 AM PDT 4.13 14 0 Normal
05/10/2026 04 AM PDT 4.13 14 0 Normal
05/10/2026 05 AM PDT 4.13 14 0 Normal
#
# NOTE 1: Stages are rounded to the nearest hundredth (.01) of a foot.
# NOTE 2: Flows are rounded to the nearest (1) cfs.
# NOTE 3: Trends are determined using hourly change in unrounded stage and flow.
# NOTE 4: Maximum Values are determined using unrounded stage and flow.
|